sensor_id;sensor_type;location;lat;lon;timestamp;P1;durP1;ratioP1;P2;durP2;ratioP2
80557;SDS011;69901;43.524;-5.636;2023-05-07T00:02:00;16.17;;;4.10;;
80557;SDS011;69901;43.524;-5.636;2023-05-07T00:04:26;16.98;;;4.88;;
80557;SDS011;69901;43.524;-5.636;2023-05-07T00:06:53;17.50;;;4.23;;
80557;SDS011;69901;43.524;-5.636;2023-05-07T00:09:19;13.98;;;3.95;;
80557;SDS011;69901;43.524;-5.636;2023-05-07T00:11:45;17.30;;;4.07;;
80557;SDS011;69901;43.524;-5.636;2023-05-07T00:14:10;18.73;;;4.80;;
80557;SDS011;69901;43.524;-5.636;2023-05-07T00:16:36;14.67;;;4.07;;
80557;SDS011;69901;43.524;-5.636;2023-05-07T00:19:01;13.93;;;3.67;;
80557;SDS011;69901;43.524;-5.636;2023-05-07T00:21:27;9.40;;;3.47;;
80557;SDS011;69901;43.524;-5.636;2023-05-07T00:23:53;10.68;;;3.28;;
80557;SDS011;69901;43.524;-5.636;2023-05-07T00:26:19;12.25;;;3.47;;
80557;SDS011;69901;43.524;-5.636;2023-05-07T00:28:44;11.07;;;3.10;;
80557;SDS011;69901;43.524;-5.636;2023-05-07T00:31:09;14.87;;;3.20;;
80557;SDS011;69901;43.524;-5.636;2023-05-07T00:33:35;11.83;;;2.93;;
80557;SDS011;69901;43.524;-5.636;2023-05-07T00:36:00;12.60;;;3.60;;
80557;SDS011;69901;43.524;-5.636;2023-05-07T00:38:26;14.20;;;3.03;;
80557;SDS011;69901;43.524;-5.636;2023-05-07T00:40:52;11.35;;;2.58;;
80557;SDS011;69901;43.524;-5.636;2023-05-07T00:43:17;13.13;;;2.53;;
80557;SDS011;69901;43.524;-5.636;2023-05-07T00:45:43;12.80;;;2.70;;
80557;SDS011;69901;43.524;-5.636;2023-05-07T00:48:08;12.60;;;2.70;;
80557;SDS011;69901;43.524;-5.636;2023-05-07T00:50:34;11.23;;;3.25;;
80557;SDS011;69901;43.524;-5.636;2023-05-07T00:52:59;12.90;;;3.17;;
80557;SDS011;69901;43.524;-5.636;2023-05-07T00:55:25;13.63;;;3.83;;
80557;SDS011;69901;43.524;-5.636;2023-05-07T00:57:51;13.67;;;3.83;;
80557;SDS011;69901;43.524;-5.636;2023-05-07T01:00:17;12.88;;;3.15;;
80557;SDS011;69901;43.524;-5.636;2023-05-07T01:02:43;13.27;;;3.33;;
80557;SDS011;69901;43.524;-5.636;2023-05-07T01:05:09;12.93;;;3.60;;
80557;SDS011;69901;43.524;-5.636;2023-05-07T01:07:42;15.15;;;3.88;;
80557;SDS011;69901;43.524;-5.636;2023-05-07T01:10:08;19.40;;;3.80;;
80557;SDS011;69901;43.524;-5.636;2023-05-07T01:12:35;15.20;;;4.07;;
80557;SDS011;69901;43.524;-5.636;2023-05-07T01:15:02;16.63;;;3.83;;
80557;SDS011;69901;43.524;-5.636;2023-05-07T01:17:33;12.65;;;3.40;;
80557;SDS011;69901;43.524;-5.636;2023-05-07T01:20:03;12.63;;;3.78;;
80557;SDS011;69901;43.524;-5.636;2023-05-07T01:22:31;13.32;;;4.03;;
80557;SDS011;69901;43.524;-5.636;2023-05-07T01:24:58;19.45;;;5.57;;
80557;SDS011;69901;43.524;-5.636;2023-05-07T01:27:25;18.60;;;4.20;;
80557;SDS011;69901;43.524;-5.636;2023-05-07T01:29:50;20.65;;;4.90;;
80557;SDS011;69901;43.524;-5.636;2023-05-07T01:32:16;21.53;;;4.97;;
80557;SDS011;69901;43.524;-5.636;2023-05-07T01:34:44;21.23;;;4.57;;
80557;SDS011;69901;43.524;-5.636;2023-05-07T01:37:13;17.70;;;3.92;;
80557;SDS011;69901;43.524;-5.636;2023-05-07T01:39:39;16.33;;;4.57;;
80557;SDS011;69901;43.524;-5.636;2023-05-07T01:42:05;12.02;;;3.55;;
80557;SDS011;69901;43.524;-5.636;2023-05-07T01:44:30;11.27;;;3.20;;
80557;SDS011;69901;43.524;-5.636;2023-05-07T01:46:56;13.87;;;4.20;;
80557;SDS011;69901;43.524;-5.636;2023-05-07T01:49:22;16.10;;;3.47;;
80557;SDS011;69901;43.524;-5.636;2023-05-07T01:51:48;13.70;;;4.10;;
80557;SDS011;69901;43.524;-5.636;2023-05-07T01:54:14;15.65;;;3.60;;
80557;SDS011;69901;43.524;-5.636;2023-05-07T01:56:39;12.55;;;3.53;;
80557;SDS011;69901;43.524;-5.636;2023-05-07T01:59:06;12.83;;;3.00;;
80557;SDS011;69901;43.524;-5.636;2023-05-07T02:01:31;14.43;;;4.22;;
80557;SDS011;69901;43.524;-5.636;2023-05-07T02:03:57;16.27;;;3.73;;
80557;SDS011;69901;43.524;-5.636;2023-05-07T02:06:22;11.70;;;3.10;;
80557;SDS011;69901;43.524;-5.636;2023-05-07T02:08:48;12.60;;;3.45;;
80557;SDS011;69901;43.524;-5.636;2023-05-07T02:11:15;12.33;;;3.10;;
80557;SDS011;69901;43.524;-5.636;2023-05-07T02:13:40;10.45;;;2.90;;
80557;SDS011;69901;43.524;-5.636;2023-05-07T02:16:06;11.70;;;3.63;;
80557;SDS011;69901;43.524;-5.636;2023-05-07T02:18:32;13.52;;;3.97;;
80557;SDS011;69901;43.524;-5.636;2023-05-07T02:20:58;13.10;;;3.63;;
80557;SDS011;69901;43.524;-5.636;2023-05-07T02:23:23;13.40;;;4.00;;
80557;SDS011;69901;43.524;-5.636;2023-05-07T02:25:49;15.07;;;3.72;;
80557;SDS011;69901;43.524;-5.636;2023-05-07T02:28:15;14.73;;;4.23;;
80557;SDS011;69901;43.524;-5.636;2023-05-07T02:30:40;14.37;;;3.73;;
80557;SDS011;69901;43.524;-5.636;2023-05-07T02:33:06;13.25;;;3.67;;
80557;SDS011;69901;43.524;-5.636;2023-05-07T02:35:33;16.33;;;3.33;;
80557;SDS011;69901;43.524;-5.636;2023-05-07T02:37:58;15.50;;;3.90;;
80557;SDS011;69901;43.524;-5.636;2023-05-07T02:40:24;16.47;;;3.63;;
80557;SDS011;69901;43.524;-5.636;2023-05-07T02:42:50;19.25;;;4.40;;
80557;SDS011;69901;43.524;-5.636;2023-05-07T02:45:15;12.20;;;3.80;;
80557;SDS011;69901;43.524;-5.636;2023-05-07T02:47:40;17.07;;;4.60;;
80557;SDS011;69901;43.524;-5.636;2023-05-07T02:50:06;15.50;;;4.07;;
80557;SDS011;69901;43.524;-5.636;2023-05-07T02:52:32;12.73;;;3.80;;
80557;SDS011;69901;43.524;-5.636;2023-05-07T02:54:57;15.17;;;4.23;;
80557;SDS011;69901;43.524;-5.636;2023-05-07T02:57:23;15.45;;;3.90;;
80557;SDS011;69901;43.524;-5.636;2023-05-07T02:59:48;13.73;;;3.33;;
80557;SDS011;69901;43.524;-5.636;2023-05-07T03:02:14;17.93;;;3.87;;
80557;SDS011;69901;43.524;-5.636;2023-05-07T03:04:39;12.70;;;3.77;;
80557;SDS011;69901;43.524;-5.636;2023-05-07T03:07:05;13.90;;;4.13;;
80557;SDS011;69901;43.524;-5.636;2023-05-07T03:09:30;12.73;;;3.47;;
80557;SDS011;69901;43.524;-5.636;2023-05-07T03:11:56;19.73;;;4.83;;
80557;SDS011;69901;43.524;-5.636;2023-05-07T03:14:21;19.95;;;4.15;;
80557;SDS011;69901;43.524;-5.636;2023-05-07T03:16:47;16.27;;;4.07;;
80557;SDS011;69901;43.524;-5.636;2023-05-07T03:19:13;17.02;;;4.43;;
80557;SDS011;69901;43.524;-5.636;2023-05-07T03:21:39;22.73;;;4.90;;
80557;SDS011;69901;43.524;-5.636;2023-05-07T03:24:05;20.45;;;5.38;;
80557;SDS011;69901;43.524;-5.636;2023-05-07T03:26:30;17.03;;;4.93;;
80557;SDS011;69901;43.524;-5.636;2023-05-07T03:28:56;17.98;;;4.85;;
80557;SDS011;69901;43.524;-5.636;2023-05-07T03:31:21;15.37;;;4.70;;
80557;SDS011;69901;43.524;-5.636;2023-05-07T03:33:53;20.10;;;5.53;;
80557;SDS011;69901;43.524;-5.636;2023-05-07T03:36:20;16.33;;;4.80;;
80557;SDS011;69901;43.524;-5.636;2023-05-07T03:38:47;15.13;;;4.65;;
80557;SDS011;69901;43.524;-5.636;2023-05-07T03:41:13;14.03;;;4.97;;
80557;SDS011;69901;43.524;-5.636;2023-05-07T03:43:39;16.70;;;5.43;;
80557;SDS011;69901;43.524;-5.636;2023-05-07T03:46:04;15.77;;;4.90;;
80557;SDS011;69901;43.524;-5.636;2023-05-07T03:48:30;19.57;;;5.40;;
80557;SDS011;69901;43.524;-5.636;2023-05-07T03:50:56;14.63;;;4.75;;
80557;SDS011;69901;43.524;-5.636;2023-05-07T03:53:22;15.13;;;4.50;;
80557;SDS011;69901;43.524;-5.636;2023-05-07T03:55:47;12.50;;;4.55;;
80557;SDS011;69901;43.524;-5.636;2023-05-07T03:58:13;16.47;;;5.40;;
80557;SDS011;69901;43.524;-5.636;2023-05-07T04:00:38;14.43;;;5.20;;
80557;SDS011;69901;43.524;-5.636;2023-05-07T04:03:05;20.73;;;4.38;;
80557;SDS011;69901;43.524;-5.636;2023-05-07T04:05:31;14.40;;;5.10;;
80557;SDS011;69901;43.524;-5.636;2023-05-07T04:07:59;20.07;;;6.00;;
80557;SDS011;69901;43.524;-5.636;2023-05-07T04:10:25;19.70;;;5.68;;
80557;SDS011;69901;43.524;-5.636;2023-05-07T04:12:50;21.90;;;5.00;;
80557;SDS011;69901;43.524;-5.636;2023-05-07T04:15:16;17.53;;;4.50;;
80557;SDS011;69901;43.524;-5.636;2023-05-07T04:17:42;20.35;;;4.93;;
80557;SDS011;69901;43.524;-5.636;2023-05-07T04:20:12;16.17;;;4.67;;
80557;SDS011;69901;43.524;-5.636;2023-05-07T04:22:39;19.58;;;5.38;;
80557;SDS011;69901;43.524;-5.636;2023-05-07T04:25:05;21.00;;;5.17;;
80557;SDS011;69901;43.524;-5.636;2023-05-07T04:27:31;18.02;;;4.65;;
80557;SDS011;69901;43.524;-5.636;2023-05-07T04:29:57;18.45;;;5.53;;
80557;SDS011;69901;43.524;-5.636;2023-05-07T04:32:23;21.80;;;5.53;;
80557;SDS011;69901;43.524;-5.636;2023-05-07T04:34:50;18.27;;;5.45;;
80557;SDS011;69901;43.524;-5.636;2023-05-07T04:37:15;15.43;;;4.95;;
80557;SDS011;69901;43.524;-5.636;2023-05-07T04:39:41;18.80;;;4.87;;
80557;SDS011;69901;43.524;-5.636;2023-05-07T04:42:06;19.67;;;5.20;;
80557;SDS011;69901;43.524;-5.636;2023-05-07T04:44:34;16.60;;;5.15;;
80557;SDS011;69901;43.524;-5.636;2023-05-07T04:47:00;16.52;;;4.97;;
80557;SDS011;69901;43.524;-5.636;2023-05-07T04:49:25;17.53;;;4.83;;
80557;SDS011;69901;43.524;-5.636;2023-05-07T04:51:51;13.27;;;4.63;;
80557;SDS011;69901;43.524;-5.636;2023-05-07T04:54:17;14.73;;;4.73;;
80557;SDS011;69901;43.524;-5.636;2023-05-07T04:56:42;19.13;;;5.87;;
80557;SDS011;69901;43.524;-5.636;2023-05-07T04:59:08;17.50;;;4.82;;
80557;SDS011;69901;43.524;-5.636;2023-05-07T05:01:33;13.33;;;3.67;;
80557;SDS011;69901;43.524;-5.636;2023-05-07T05:03:58;15.60;;;4.57;;
80557;SDS011;69901;43.524;-5.636;2023-05-07T05:06:25;13.60;;;4.78;;
80557;SDS011;69901;43.524;-5.636;2023-05-07T05:08:50;13.97;;;4.50;;
80557;SDS011;69901;43.524;-5.636;2023-05-07T05:11:16;12.68;;;4.60;;
80557;SDS011;69901;43.524;-5.636;2023-05-07T05:13:41;14.47;;;5.37;;
80557;SDS011;69901;43.524;-5.636;2023-05-07T05:16:07;15.70;;;4.97;;
80557;SDS011;69901;43.524;-5.636;2023-05-07T05:18:32;12.33;;;4.27;;
80557;SDS011;69901;43.524;-5.636;2023-05-07T05:20:58;14.60;;;4.50;;
80557;SDS011;69901;43.524;-5.636;2023-05-07T05:23:23;11.20;;;4.57;;
80557;SDS011;69901;43.524;-5.636;2023-05-07T05:25:49;17.47;;;4.77;;
80557;SDS011;69901;43.524;-5.636;2023-05-07T05:28:14;13.70;;;5.18;;
80557;SDS011;69901;43.524;-5.636;2023-05-07T05:30:40;14.20;;;5.23;;
80557;SDS011;69901;43.524;-5.636;2023-05-07T05:33:05;15.67;;;4.80;;
80557;SDS011;69901;43.524;-5.636;2023-05-07T05:35:31;15.60;;;4.90;;
80557;SDS011;69901;43.524;-5.636;2023-05-07T05:37:56;15.20;;;5.03;;
80557;SDS011;69901;43.524;-5.636;2023-05-07T05:40:22;15.53;;;4.90;;
80557;SDS011;69901;43.524;-5.636;2023-05-07T05:42:47;17.15;;;5.18;;
80557;SDS011;69901;43.524;-5.636;2023-05-07T05:45:13;14.80;;;4.47;;
80557;SDS011;69901;43.524;-5.636;2023-05-07T05:47:38;17.13;;;5.60;;
80557;SDS011;69901;43.524;-5.636;2023-05-07T05:50:05;24.50;;;5.72;;
80557;SDS011;69901;43.524;-5.636;2023-05-07T05:52:31;20.02;;;5.13;;
80557;SDS011;69901;43.524;-5.636;2023-05-07T05:54:57;18.93;;;6.00;;
80557;SDS011;69901;43.524;-5.636;2023-05-07T05:57:22;20.70;;;5.30;;
80557;SDS011;69901;43.524;-5.636;2023-05-07T05:59:48;19.17;;;4.90;;
80557;SDS011;69901;43.524;-5.636;2023-05-07T06:02:13;12.65;;;4.45;;
80557;SDS011;69901;43.524;-5.636;2023-05-07T06:04:39;17.40;;;3.83;;
80557;SDS011;69901;43.524;-5.636;2023-05-07T06:07:04;13.63;;;4.43;;
80557;SDS011;69901;43.524;-5.636;2023-05-07T06:09:30;18.53;;;5.67;;
80557;SDS011;69901;43.524;-5.636;2023-05-07T06:11:55;22.20;;;6.37;;
80557;SDS011;69901;43.524;-5.636;2023-05-07T06:14:21;15.85;;;4.95;;
80557;SDS011;69901;43.524;-5.636;2023-05-07T06:16:46;16.23;;;4.73;;
80557;SDS011;69901;43.524;-5.636;2023-05-07T06:19:12;16.57;;;4.57;;
80557;SDS011;69901;43.524;-5.636;2023-05-07T06:21:38;18.10;;;5.00;;
80557;SDS011;69901;43.524;-5.636;2023-05-07T06:24:04;16.88;;;5.25;;
80557;SDS011;69901;43.524;-5.636;2023-05-07T06:26:30;14.20;;;5.05;;
80557;SDS011;69901;43.524;-5.636;2023-05-07T06:28:55;15.37;;;4.93;;
80557;SDS011;69901;43.524;-5.636;2023-05-07T06:31:21;16.37;;;4.90;;
80557;SDS011;69901;43.524;-5.636;2023-05-07T06:33:46;12.95;;;4.10;;
80557;SDS011;69901;43.524;-5.636;2023-05-07T06:36:12;11.67;;;4.50;;
80557;SDS011;69901;43.524;-5.636;2023-05-07T06:38:38;14.45;;;3.92;;
80557;SDS011;69901;43.524;-5.636;2023-05-07T06:41:05;13.83;;;4.17;;
80557;SDS011;69901;43.524;-5.636;2023-05-07T06:43:31;13.18;;;4.55;;
80557;SDS011;69901;43.524;-5.636;2023-05-07T06:45:56;14.40;;;4.13;;
80557;SDS011;69901;43.524;-5.636;2023-05-07T06:48:22;12.73;;;3.88;;
80557;SDS011;69901;43.524;-5.636;2023-05-07T06:50:47;14.17;;;3.83;;
80557;SDS011;69901;43.524;-5.636;2023-05-07T06:53:13;14.73;;;4.37;;
80557;SDS011;69901;43.524;-5.636;2023-05-07T06:55:38;14.55;;;4.60;;
80557;SDS011;69901;43.524;-5.636;2023-05-07T06:58:04;14.73;;;4.20;;
80557;SDS011;69901;43.524;-5.636;2023-05-07T07:00:30;15.13;;;4.70;;
80557;SDS011;69901;43.524;-5.636;2023-05-07T07:02:56;18.97;;;4.90;;
80557;SDS011;69901;43.524;-5.636;2023-05-07T07:05:22;17.33;;;4.93;;
80557;SDS011;69901;43.524;-5.636;2023-05-07T07:07:47;13.85;;;4.18;;
80557;SDS011;69901;43.524;-5.636;2023-05-07T07:10:20;16.13;;;4.97;;
80557;SDS011;69901;43.524;-5.636;2023-05-07T07:12:47;12.60;;;3.40;;
80557;SDS011;69901;43.524;-5.636;2023-05-07T07:15:13;13.18;;;4.20;;
80557;SDS011;69901;43.524;-5.636;2023-05-07T07:17:39;15.00;;;4.13;;
80557;SDS011;69901;43.524;-5.636;2023-05-07T07:20:04;15.93;;;4.87;;
80557;SDS011;69901;43.524;-5.636;2023-05-07T07:22:30;15.77;;;5.22;;
80557;SDS011;69901;43.524;-5.636;2023-05-07T07:24:56;18.93;;;5.27;;
80557;SDS011;69901;43.524;-5.636;2023-05-07T07:27:21;13.88;;;4.03;;
80557;SDS011;69901;43.524;-5.636;2023-05-07T07:29:47;21.77;;;4.90;;
80557;SDS011;69901;43.524;-5.636;2023-05-07T07:32:12;23.33;;;5.37;;
80557;SDS011;69901;43.524;-5.636;2023-05-07T07:34:38;23.10;;;5.43;;
80557;SDS011;69901;43.524;-5.636;2023-05-07T07:37:03;19.17;;;5.00;;
80557;SDS011;69901;43.524;-5.636;2023-05-07T07:39:34;16.83;;;5.30;;
80557;SDS011;69901;43.524;-5.636;2023-05-07T07:42:00;14.50;;;4.53;;
80557;SDS011;69901;43.524;-5.636;2023-05-07T07:44:25;14.07;;;4.93;;
80557;SDS011;69901;43.524;-5.636;2023-05-07T07:46:52;19.90;;;4.37;;
80557;SDS011;69901;43.524;-5.636;2023-05-07T07:49:17;20.55;;;4.38;;
80557;SDS011;69901;43.524;-5.636;2023-05-07T07:51:43;19.33;;;5.10;;
80557;SDS011;69901;43.524;-5.636;2023-05-07T07:54:08;19.87;;;5.10;;
80557;SDS011;69901;43.524;-5.636;2023-05-07T07:56:34;18.15;;;5.00;;
80557;SDS011;69901;43.524;-5.636;2023-05-07T07:59:00;15.50;;;4.73;;
80557;SDS011;69901;43.524;-5.636;2023-05-07T08:01:25;18.25;;;4.32;;
80557;SDS011;69901;43.524;-5.636;2023-05-07T08:03:51;19.97;;;5.27;;
80557;SDS011;69901;43.524;-5.636;2023-05-07T08:06:16;19.75;;;4.50;;
80557;SDS011;69901;43.524;-5.636;2023-05-07T08:08:42;18.20;;;4.90;;
80557;SDS011;69901;43.524;-5.636;2023-05-07T08:11:08;18.83;;;5.20;;
80557;SDS011;69901;43.524;-5.636;2023-05-07T08:13:33;18.30;;;4.45;;
80557;SDS011;69901;43.524;-5.636;2023-05-07T08:15:59;16.27;;;4.13;;
80557;SDS011;69901;43.524;-5.636;2023-05-07T08:18:25;16.95;;;4.03;;
80557;SDS011;69901;43.524;-5.636;2023-05-07T08:20:51;18.83;;;5.00;;
80557;SDS011;69901;43.524;-5.636;2023-05-07T08:23:16;23.70;;;5.65;;
80557;SDS011;69901;43.524;-5.636;2023-05-07T08:25:42;16.97;;;4.13;;
80557;SDS011;69901;43.524;-5.636;2023-05-07T08:28:10;19.73;;;5.53;;
80557;SDS011;69901;43.524;-5.636;2023-05-07T08:30:35;15.30;;;5.07;;
80557;SDS011;69901;43.524;-5.636;2023-05-07T08:33:01;15.37;;;5.57;;
80557;SDS011;69901;43.524;-5.636;2023-05-07T08:35:26;19.77;;;4.65;;
80557;SDS011;69901;43.524;-5.636;2023-05-07T08:37:52;17.75;;;4.60;;
80557;SDS011;69901;43.524;-5.636;2023-05-07T08:40:18;20.33;;;4.70;;
80557;SDS011;69901;43.524;-5.636;2023-05-07T08:42:44;18.67;;;3.63;;
80557;SDS011;69901;43.524;-5.636;2023-05-07T08:45:10;18.30;;;3.40;;
80557;SDS011;69901;43.524;-5.636;2023-05-07T08:47:43;17.25;;;3.80;;
80557;SDS011;69901;43.524;-5.636;2023-05-07T08:50:12;16.88;;;3.67;;
80557;SDS011;69901;43.524;-5.636;2023-05-07T08:52:41;16.63;;;3.60;;
80557;SDS011;69901;43.524;-5.636;2023-05-07T08:55:07;23.92;;;4.18;;
80557;SDS011;69901;43.524;-5.636;2023-05-07T08:57:34;16.85;;;4.30;;
80557;SDS011;69901;43.524;-5.636;2023-05-07T08:59:59;20.43;;;4.77;;
80557;SDS011;69901;43.524;-5.636;2023-05-07T09:02:25;22.33;;;4.72;;
80557;SDS011;69901;43.524;-5.636;2023-05-07T09:04:50;23.93;;;3.93;;
80557;SDS011;69901;43.524;-5.636;2023-05-07T09:07:16;18.10;;;3.80;;
80557;SDS011;69901;43.524;-5.636;2023-05-07T09:09:43;26.65;;;5.35;;
80557;SDS011;69901;43.524;-5.636;2023-05-07T09:12:09;19.25;;;4.60;;
80557;SDS011;69901;43.524;-5.636;2023-05-07T09:14:35;23.33;;;4.00;;
80557;SDS011;69901;43.524;-5.636;2023-05-07T09:17:00;18.50;;;4.20;;
80557;SDS011;69901;43.524;-5.636;2023-05-07T09:19:26;21.47;;;4.40;;
80557;SDS011;69901;43.524;-5.636;2023-05-07T09:21:59;20.95;;;3.78;;
80557;SDS011;69901;43.524;-5.636;2023-05-07T09:24:29;22.73;;;4.75;;
80557;SDS011;69901;43.524;-5.636;2023-05-07T09:26:59;19.60;;;4.60;;
80557;SDS011;69901;43.524;-5.636;2023-05-07T09:29:26;21.67;;;4.70;;
80557;SDS011;69901;43.524;-5.636;2023-05-07T09:31:53;16.33;;;3.60;;
80557;SDS011;69901;43.524;-5.636;2023-05-07T09:34:20;19.88;;;3.45;;
80557;SDS011;69901;43.524;-5.636;2023-05-07T09:36:45;15.13;;;4.00;;
80557;SDS011;69901;43.524;-5.636;2023-05-07T09:39:11;14.27;;;3.42;;
80557;SDS011;69901;43.524;-5.636;2023-05-07T09:41:44;18.48;;;3.75;;
80557;SDS011;69901;43.524;-5.636;2023-05-07T09:44:10;18.57;;;3.70;;
80557;SDS011;69901;43.524;-5.636;2023-05-07T09:46:36;20.27;;;3.90;;
80557;SDS011;69901;43.524;-5.636;2023-05-07T09:49:03;14.15;;;3.53;;
80557;SDS011;69901;43.524;-5.636;2023-05-07T09:51:38;16.20;;;3.60;;
80557;SDS011;69901;43.524;-5.636;2023-05-07T09:54:07;17.40;;;3.72;;
80557;SDS011;69901;43.524;-5.636;2023-05-07T09:56:33;14.30;;;4.50;;
80557;SDS011;69901;43.524;-5.636;2023-05-07T09:58:59;16.90;;;3.77;;
80557;SDS011;69901;43.524;-5.636;2023-05-07T10:01:26;17.02;;;3.30;;
80557;SDS011;69901;43.524;-5.636;2023-05-07T10:03:52;14.23;;;2.42;;
80557;SDS011;69901;43.524;-5.636;2023-05-07T10:06:19;16.77;;;3.67;;
80557;SDS011;69901;43.524;-5.636;2023-05-07T10:08:45;14.30;;;2.70;;
80557;SDS011;69901;43.524;-5.636;2023-05-07T10:11:11;15.07;;;3.87;;
80557;SDS011;69901;43.524;-5.636;2023-05-07T10:13:36;12.07;;;2.88;;
80557;SDS011;69901;43.524;-5.636;2023-05-07T10:16:06;14.65;;;2.72;;
80557;SDS011;69901;43.524;-5.636;2023-05-07T10:18:32;15.05;;;3.05;;
80557;SDS011;69901;43.524;-5.636;2023-05-07T10:21:08;9.53;;;2.10;;
80557;SDS011;69901;43.524;-5.636;2023-05-07T10:23:40;15.65;;;2.40;;
80557;SDS011;69901;43.524;-5.636;2023-05-07T10:26:09;12.07;;;2.42;;
80557;SDS011;69901;43.524;-5.636;2023-05-07T10:28:37;12.85;;;3.00;;
80557;SDS011;69901;43.524;-5.636;2023-05-07T10:33:41;15.30;;;2.73;;
80557;SDS011;69901;43.524;-5.636;2023-05-07T10:36:10;9.32;;;2.80;;
80557;SDS011;69901;43.524;-5.636;2023-05-07T10:38:36;10.57;;;3.55;;
80557;SDS011;69901;43.524;-5.636;2023-05-07T10:41:01;13.83;;;2.70;;
80557;SDS011;69901;43.524;-5.636;2023-05-07T10:43:40;11.90;;;2.63;;
80557;SDS011;69901;43.524;-5.636;2023-05-07T10:46:17;13.48;;;2.50;;
80557;SDS011;69901;43.524;-5.636;2023-05-07T10:49:26;13.13;;;2.63;;
80557;SDS011;69901;43.524;-5.636;2023-05-07T10:51:32;11.57;;;2.70;;
80557;SDS011;69901;43.524;-5.636;2023-05-07T10:56:36;10.50;;;2.40;;
80557;SDS011;69901;43.524;-5.636;2023-05-07T10:59:48;9.85;;;2.35;;
80557;SDS011;69901;43.524;-5.636;2023-05-07T11:01:57;9.10;;;2.42;;
80557;SDS011;69901;43.524;-5.636;2023-05-07T11:04:24;13.23;;;2.80;;
80557;SDS011;69901;43.524;-5.636;2023-05-07T11:12:16;13.10;;;2.70;;
80557;SDS011;69901;43.524;-5.636;2023-05-07T11:14:43;12.23;;;2.45;;
80557;SDS011;69901;43.524;-5.636;2023-05-07T11:17:10;14.77;;;2.50;;
80557;SDS011;69901;43.524;-5.636;2023-05-07T11:19:52;9.10;;;2.13;;
80557;SDS011;69901;43.524;-5.636;2023-05-07T11:24:59;15.65;;;2.45;;
80557;SDS011;69901;43.524;-5.636;2023-05-07T11:27:25;7.88;;;1.95;;
80557;SDS011;69901;43.524;-5.636;2023-05-07T11:29:52;9.87;;;2.00;;
80557;SDS011;69901;43.524;-5.636;2023-05-07T11:32:27;9.10;;;1.90;;
80557;SDS011;69901;43.524;-5.636;2023-05-07T11:34:55;8.77;;;1.75;;
80557;SDS011;69901;43.524;-5.636;2023-05-07T11:37:22;11.68;;;2.17;;
80557;SDS011;69901;43.524;-5.636;2023-05-07T11:39:49;10.75;;;2.50;;
80557;SDS011;69901;43.524;-5.636;2023-05-07T11:44:52;8.20;;;2.05;;
80557;SDS011;69901;43.524;-5.636;2023-05-07T11:47:19;7.72;;;1.85;;
80557;SDS011;69901;43.524;-5.636;2023-05-07T11:49:49;8.38;;;1.75;;
80557;SDS011;69901;43.524;-5.636;2023-05-07T11:52:16;8.63;;;2.13;;
80557;SDS011;69901;43.524;-5.636;2023-05-07T11:54:52;8.80;;;1.80;;
80557;SDS011;69901;43.524;-5.636;2023-05-07T11:57:20;6.28;;;1.85;;
80557;SDS011;69901;43.524;-5.636;2023-05-07T11:59:46;10.35;;;2.28;;
80557;SDS011;69901;43.524;-5.636;2023-05-07T12:02:16;8.77;;;1.75;;
80557;SDS011;69901;43.524;-5.636;2023-05-07T12:04:42;5.93;;;1.65;;
80557;SDS011;69901;43.524;-5.636;2023-05-07T12:07:11;8.70;;;1.43;;
80557;SDS011;69901;43.524;-5.636;2023-05-07T12:09:38;10.52;;;2.20;;
80557;SDS011;69901;43.524;-5.636;2023-05-07T12:12:04;7.07;;;1.63;;
80557;SDS011;69901;43.524;-5.636;2023-05-07T12:14:30;7.80;;;1.48;;
80557;SDS011;69901;43.524;-5.636;2023-05-07T12:16:56;8.85;;;1.80;;
80557;SDS011;69901;43.524;-5.636;2023-05-07T12:19:22;7.77;;;2.00;;
80557;SDS011;69901;43.524;-5.636;2023-05-07T12:21:48;9.85;;;1.75;;
80557;SDS011;69901;43.524;-5.636;2023-05-07T12:24:16;7.97;;;1.90;;
80557;SDS011;69901;43.524;-5.636;2023-05-07T12:26:43;9.35;;;2.08;;
80557;SDS011;69901;43.524;-5.636;2023-05-07T12:29:08;6.57;;;1.50;;
80557;SDS011;69901;43.524;-5.636;2023-05-07T12:31:34;7.70;;;1.73;;
80557;SDS011;69901;43.524;-5.636;2023-05-07T12:33:59;5.35;;;1.67;;
80557;SDS011;69901;43.524;-5.636;2023-05-07T12:36:25;6.53;;;2.00;;
80557;SDS011;69901;43.524;-5.636;2023-05-07T12:38:50;9.13;;;1.73;;
80557;SDS011;69901;43.524;-5.636;2023-05-07T12:41:16;6.35;;;1.45;;
80557;SDS011;69901;43.524;-5.636;2023-05-07T12:43:44;6.37;;;1.47;;
80557;SDS011;69901;43.524;-5.636;2023-05-07T12:46:11;8.55;;;1.58;;
80557;SDS011;69901;43.524;-5.636;2023-05-07T12:48:43;8.90;;;1.97;;
80557;SDS011;69901;43.524;-5.636;2023-05-07T12:51:10;7.40;;;2.00;;
80557;SDS011;69901;43.524;-5.636;2023-05-07T12:53:41;8.40;;;1.85;;
80557;SDS011;69901;43.524;-5.636;2023-05-07T12:56:07;6.88;;;1.48;;
80557;SDS011;69901;43.524;-5.636;2023-05-07T12:58:34;5.95;;;1.45;;
80557;SDS011;69901;43.524;-5.636;2023-05-07T13:01:01;6.20;;;1.93;;
80557;SDS011;69901;43.524;-5.636;2023-05-07T13:03:34;9.10;;;1.52;;
80557;SDS011;69901;43.524;-5.636;2023-05-07T13:06:05;6.95;;;1.38;;
80557;SDS011;69901;43.524;-5.636;2023-05-07T13:08:36;8.75;;;1.52;;
80557;SDS011;69901;43.524;-5.636;2023-05-07T13:11:06;7.18;;;1.35;;
80557;SDS011;69901;43.524;-5.636;2023-05-07T13:13:33;7.50;;;1.60;;
80557;SDS011;69901;43.524;-5.636;2023-05-07T13:16:03;9.20;;;1.95;;
80557;SDS011;69901;43.524;-5.636;2023-05-07T13:18:30;5.70;;;1.33;;
80557;SDS011;69901;43.524;-5.636;2023-05-07T13:20:56;9.00;;;1.67;;
80557;SDS011;69901;43.524;-5.636;2023-05-07T13:23:22;6.87;;;1.60;;
80557;SDS011;69901;43.524;-5.636;2023-05-07T13:25:48;5.68;;;1.08;;
80557;SDS011;69901;43.524;-5.636;2023-05-07T13:28:14;6.78;;;1.17;;
80557;SDS011;69901;43.524;-5.636;2023-05-07T13:30:40;6.53;;;1.57;;
80557;SDS011;69901;43.524;-5.636;2023-05-07T13:33:05;8.40;;;1.50;;
80557;SDS011;69901;43.524;-5.636;2023-05-07T13:35:32;5.57;;;1.40;;
80557;SDS011;69901;43.524;-5.636;2023-05-07T13:37:57;5.03;;;1.23;;
80557;SDS011;69901;43.524;-5.636;2023-05-07T13:40:23;7.70;;;1.93;;
80557;SDS011;69901;43.524;-5.636;2023-05-07T13:42:49;5.80;;;1.05;;
80557;SDS011;69901;43.524;-5.636;2023-05-07T13:45:15;5.25;;;1.00;;
80557;SDS011;69901;43.524;-5.636;2023-05-07T13:47:41;5.20;;;1.73;;
80557;SDS011;69901;43.524;-5.636;2023-05-07T13:50:10;7.23;;;1.50;;
80557;SDS011;69901;43.524;-5.636;2023-05-07T13:52:37;5.85;;;1.50;;
80557;SDS011;69901;43.524;-5.636;2023-05-07T13:55:03;4.50;;;0.98;;
80557;SDS011;69901;43.524;-5.636;2023-05-07T13:57:29;4.80;;;1.37;;
80557;SDS011;69901;43.524;-5.636;2023-05-07T13:59:54;5.45;;;1.20;;
80557;SDS011;69901;43.524;-5.636;2023-05-07T14:02:20;7.60;;;1.70;;
80557;SDS011;69901;43.524;-5.636;2023-05-07T14:04:45;5.38;;;1.40;;
80557;SDS011;69901;43.524;-5.636;2023-05-07T14:07:11;4.87;;;1.43;;
80557;SDS011;69901;43.524;-5.636;2023-05-07T14:09:36;8.57;;;1.73;;
80557;SDS011;69901;43.524;-5.636;2023-05-07T14:12:02;7.03;;;1.70;;
80557;SDS011;69901;43.524;-5.636;2023-05-07T14:14:27;7.07;;;1.73;;
80557;SDS011;69901;43.524;-5.636;2023-05-07T14:16:53;6.20;;;1.57;;
80557;SDS011;69901;43.524;-5.636;2023-05-07T14:19:18;5.00;;;1.30;;
80557;SDS011;69901;43.524;-5.636;2023-05-07T14:21:44;8.02;;;1.02;;
80557;SDS011;69901;43.524;-5.636;2023-05-07T14:24:09;6.23;;;1.20;;
80557;SDS011;69901;43.524;-5.636;2023-05-07T14:26:35;6.80;;;1.50;;
80557;SDS011;69901;43.524;-5.636;2023-05-07T14:29:01;8.63;;;1.70;;
80557;SDS011;69901;43.524;-5.636;2023-05-07T14:31:26;5.33;;;1.47;;
80557;SDS011;69901;43.524;-5.636;2023-05-07T14:33:52;6.82;;;1.27;;
80557;SDS011;69901;43.524;-5.636;2023-05-07T14:36:18;7.37;;;1.50;;